Terminal Aerodrome Forecast
Issued by NWS Greer, SC

Home | Current Version | Previous Version | Text Only | Print | Product List | Glossary On
Versions: 1 2 3 4 5 6 7 8 9 10 11 12 13 14
000
FTUS42 KGSP 240531
TAFGSP
TAF
KGSP 240531Z 2406/2506 VRB02KT P6SM FEW250
     FM241900 20006KT P6SM SCT250
     FM250300 VRB02KT P6SM SCT070=

USA.gov is the U.S. government's official web portal to all federal, state and local government web resources and services.